createdAt,value
2023-04-22T00:01:41.428Z,3.70
2023-04-22T00:04:09.633Z,3.40
2023-04-22T00:06:37.750Z,3.37
2023-04-22T00:09:07.020Z,3.83
2023-04-22T00:11:34.755Z,3.27
2023-04-22T00:14:02.410Z,3.20
2023-04-22T00:16:30.189Z,3.87
2023-04-22T00:18:58.360Z,3.30
2023-04-22T00:21:27.478Z,3.47
2023-04-22T00:23:55.954Z,3.10
2023-04-22T00:26:25.492Z,3.60
2023-04-22T00:28:53.411Z,3.37
2023-04-22T00:31:21.382Z,3.30
2023-04-22T00:33:49.266Z,3.60
2023-04-22T00:36:16.970Z,3.37
2023-04-22T00:38:50.606Z,3.57
2023-04-22T00:41:18.730Z,3.87
2023-04-22T00:43:47.814Z,3.80
2023-04-22T00:46:17.969Z,3.50
2023-04-22T00:48:47.068Z,3.37
2023-04-22T00:51:15.176Z,3.37
2023-04-22T00:53:42.897Z,3.20
2023-04-22T00:56:13.175Z,3.30
2023-04-22T00:58:41.361Z,3.20
2023-04-22T01:01:12.821Z,3.47
2023-04-22T01:03:42.636Z,3.33
2023-04-22T01:06:11.692Z,3.10
2023-04-22T01:08:39.931Z,3.30
2023-04-22T01:11:07.985Z,3.40
2023-04-22T01:13:38.216Z,3.20
2023-04-22T01:16:08.951Z,3.27
2023-04-22T01:18:38.320Z,3.40
2023-04-22T01:21:07.166Z,3.17
2023-04-22T01:23:38.142Z,3.20
2023-04-22T01:26:07.528Z,3.40
2023-04-22T01:28:35.378Z,3.93
2023-04-22T01:31:03.702Z,3.37
2023-04-22T01:33:31.963Z,3.40
2023-04-22T01:35:59.901Z,3.53
2023-04-22T01:38:28.873Z,3.63
2023-04-22T01:40:58.510Z,3.10
2023-04-22T01:43:26.813Z,3.57
2023-04-22T01:45:55.287Z,3.83
2023-04-22T01:48:24.594Z,3.60
2023-04-22T01:50:52.675Z,3.73
2023-04-22T01:53:20.753Z,4.07
2023-04-22T01:55:49.658Z,3.47
2023-04-22T01:58:18.967Z,3.37
2023-04-22T02:00:47.666Z,4.33
2023-04-22T02:03:15.634Z,3.30
2023-04-22T02:05:43.533Z,3.17
2023-04-22T02:08:11.681Z,3.20
2023-04-22T02:10:39.587Z,3.30
2023-04-22T02:13:07.456Z,3.23
2023-04-22T02:15:37.319Z,3.40
2023-04-22T02:18:06.165Z,3.47
2023-04-22T02:20:33.860Z,3.27
2023-04-22T02:23:01.686Z,3.20
2023-04-22T02:25:29.751Z,3.77
2023-04-22T02:27:57.885Z,3.77
2023-04-22T02:30:26.212Z,3.60
2023-04-22T02:32:56.228Z,3.93
2023-04-22T02:35:23.994Z,3.33
2023-04-22T02:37:51.905Z,3.57
2023-04-22T02:40:19.882Z,3.47
2023-04-22T02:42:48.651Z,4.00
2023-04-22T02:45:16.711Z,3.43
2023-04-22T02:47:44.761Z,3.80
2023-04-22T02:50:13.932Z,3.90
2023-04-22T02:52:41.985Z,3.60
2023-04-22T02:55:10.960Z,3.63
2023-04-22T02:57:38.756Z,3.60
2023-04-22T03:00:08.014Z,3.60
2023-04-22T03:02:36.180Z,4.00
2023-04-22T03:05:04.604Z,3.93
2023-04-22T03:07:33.796Z,3.70
2023-04-22T03:10:01.578Z,3.47
2023-04-22T03:12:29.503Z,3.87
2023-04-22T03:14:57.327Z,3.87
2023-04-22T03:17:26.317Z,3.90
2023-04-22T03:19:54.044Z,4.27
2023-04-22T03:22:21.952Z,3.70
2023-04-22T03:24:51.347Z,3.70
2023-04-22T03:27:19.068Z,3.27
2023-04-22T03:29:46.720Z,3.60
2023-04-22T03:32:16.544Z,3.60
2023-04-22T03:34:44.289Z,3.80
2023-04-22T03:37:12.194Z,3.60
2023-04-22T03:39:39.998Z,3.73
2023-04-22T03:42:09.984Z,3.77
2023-04-22T03:44:37.844Z,3.93
2023-04-22T03:47:05.999Z,3.97
2023-04-22T03:49:34.080Z,4.03
2023-04-22T03:52:02.000Z,3.77
2023-04-22T03:54:30.059Z,4.03
2023-04-22T03:56:58.980Z,4.00
2023-04-22T03:59:28.057Z,3.20
2023-04-22T04:01:55.964Z,4.33
2023-04-22T04:04:24.590Z,3.47
2023-04-22T04:06:52.733Z,3.57
2023-04-22T04:09:20.505Z,4.00
2023-04-22T04:11:48.266Z,3.87
2023-04-22T04:14:16.313Z,3.80
2023-04-22T04:16:45.795Z,3.97
2023-04-22T04:19:13.595Z,4.10
2023-04-22T04:21:43.106Z,4.10
2023-04-22T04:24:11.065Z,3.80
2023-04-22T04:26:39.515Z,4.00
2023-04-22T04:29:09.119Z,4.03
2023-04-22T04:31:36.903Z,3.73
2023-04-22T04:34:06.014Z,3.90
2023-04-22T04:36:34.406Z,3.80
2023-04-22T04:39:02.494Z,3.80
2023-04-22T04:41:31.848Z,3.50
2023-04-22T04:44:00.675Z,3.60
2023-04-22T04:46:29.573Z,3.57
2023-04-22T04:48:58.733Z,3.87
2023-04-22T04:51:27.967Z,4.03
2023-04-22T04:53:55.628Z,3.73
2023-04-22T04:56:23.800Z,3.93
2023-04-22T04:58:51.688Z,4.00
2023-04-22T05:01:19.714Z,3.77
2023-04-22T05:03:47.561Z,4.43
2023-04-22T05:06:15.641Z,4.83
2023-04-22T05:08:46.528Z,4.30
2023-04-22T05:11:14.306Z,4.30
2023-04-22T05:13:42.190Z,4.07
2023-04-22T05:16:10.235Z,3.50
2023-04-22T05:18:37.938Z,3.87
2023-04-22T05:21:06.219Z,3.40
2023-04-22T05:23:33.904Z,3.50
2023-04-22T05:26:03.059Z,3.73
2023-04-22T05:28:33.046Z,3.30
2023-04-22T05:31:01.057Z,4.50
2023-04-22T05:33:28.979Z,3.80
2023-04-22T05:35:56.754Z,3.67
2023-04-22T05:38:24.420Z,3.80
2023-04-22T05:40:52.202Z,3.50
2023-04-22T05:43:21.374Z,3.80
2023-04-22T05:45:49.422Z,4.10
2023-04-22T05:48:17.382Z,3.97
2023-04-22T05:50:45.222Z,4.07
2023-04-22T05:53:12.955Z,3.50
2023-04-22T05:55:41.032Z,4.23
2023-04-22T05:58:09.100Z,3.83
2023-04-22T06:00:38.596Z,3.77
2023-04-22T06:03:08.910Z,3.80
2023-04-22T06:05:37.007Z,3.50
2023-04-22T06:08:04.985Z,3.27
2023-04-22T06:10:32.830Z,3.30
2023-04-22T06:13:01.247Z,3.13
2023-04-22T06:15:29.133Z,3.40
2023-04-22T06:17:58.767Z,3.00
2023-04-22T06:20:26.655Z,3.40
2023-04-22T06:22:54.405Z,3.20
2023-04-22T06:25:22.312Z,3.13
2023-04-22T06:27:50.089Z,2.93
2023-04-22T06:30:17.756Z,2.90
2023-04-22T06:32:46.330Z,3.13
2023-04-22T06:35:16.529Z,3.20
2023-04-22T06:37:44.190Z,2.73
2023-04-22T06:40:12.685Z,2.57
2023-04-22T06:42:40.439Z,2.80
2023-04-22T06:45:09.597Z,2.90
2023-04-22T06:47:37.683Z,2.90
2023-04-22T06:50:06.360Z,3.00
2023-04-22T06:52:35.924Z,3.07
2023-04-22T06:55:04.194Z,3.07
2023-04-22T06:57:32.998Z,3.03
2023-04-22T07:00:00.844Z,3.03
2023-04-22T07:02:28.793Z,2.87
2023-04-22T07:04:56.677Z,2.83
2023-04-22T07:07:24.245Z,3.10
2023-04-22T07:09:53.594Z,2.80
2023-04-22T07:12:21.405Z,2.93
2023-04-22T07:14:52.496Z,2.80
2023-04-22T07:17:22.502Z,2.73
2023-04-22T07:19:50.418Z,2.83
2023-04-22T07:22:18.266Z,2.50
2023-04-22T07:24:46.361Z,2.67
2023-04-22T07:27:16.312Z,3.00
2023-04-22T07:29:44.964Z,2.80
2023-04-22T07:32:13.909Z,2.67
2023-04-22T07:34:42.068Z,2.50
2023-04-22T07:37:10.760Z,2.30
2023-04-22T07:39:38.885Z,3.00
2023-04-22T07:42:07.367Z,2.30
2023-04-22T07:44:38.910Z,2.33
2023-04-22T07:47:08.616Z,2.43
2023-04-22T07:49:36.981Z,2.40
2023-04-22T07:52:04.981Z,2.50
2023-04-22T07:54:33.096Z,2.60
2023-04-22T07:57:01.635Z,2.60
2023-04-22T07:59:29.389Z,2.47
2023-04-22T08:01:58.544Z,2.30
2023-04-22T08:04:27.176Z,2.80
2023-04-22T08:06:56.014Z,2.40
2023-04-22T08:09:23.745Z,2.40
2023-04-22T08:11:53.067Z,2.30
2023-04-22T08:14:20.945Z,2.20
2023-04-22T08:16:49.012Z,2.33
2023-04-22T08:19:18.312Z,2.07
2023-04-22T08:21:47.057Z,2.07
2023-04-22T08:24:15.037Z,2.20
2023-04-22T08:26:43.227Z,2.40
2023-04-22T08:29:11.303Z,2.27
2023-04-22T08:31:40.470Z,2.40
2023-04-22T08:34:08.343Z,2.47
2023-04-22T08:36:37.708Z,2.27
2023-04-22T08:39:05.952Z,2.27
2023-04-22T08:41:36.138Z,2.20
2023-04-22T08:44:04.828Z,2.27
2023-04-22T08:46:32.489Z,2.20
2023-04-22T08:49:03.642Z,2.00
2023-04-22T08:51:33.676Z,2.10
2023-04-22T08:54:03.005Z,2.00
2023-04-22T08:56:31.727Z,2.40
2023-04-22T08:58:59.853Z,2.50
2023-04-22T09:01:29.474Z,2.40
2023-04-22T09:04:00.616Z,2.17
2023-04-22T09:06:29.677Z,2.53
2023-04-22T09:08:59.105Z,2.40
2023-04-22T09:11:30.121Z,2.10
2023-04-22T09:13:58.256Z,2.30
2023-04-22T09:16:26.038Z,2.20
2023-04-22T09:18:55.010Z,2.30
2023-04-22T09:21:27.913Z,2.10
2023-04-22T09:23:57.339Z,2.30
2023-04-22T09:26:26.459Z,2.30
2023-04-22T09:28:58.704Z,2.07
2023-04-22T09:31:27.357Z,2.30
2023-04-22T09:33:57.155Z,2.60
2023-04-22T09:36:27.242Z,2.13
2023-04-22T09:38:55.539Z,2.30
2023-04-22T09:41:30.649Z,2.30
2023-04-22T09:44:01.232Z,2.57
2023-04-22T09:46:30.794Z,2.00
2023-04-22T09:49:00.095Z,2.10
2023-04-22T09:51:28.975Z,2.10
2023-04-22T09:54:01.869Z,2.33
2023-04-22T09:56:43.425Z,2.43
2023-04-22T09:59:12.566Z,2.20
2023-04-22T10:01:41.879Z,3.10
2023-04-22T10:04:10.207Z,2.30
2023-04-22T10:06:38.431Z,2.43
2023-04-22T10:09:09.306Z,2.23
2023-04-22T10:11:37.792Z,2.20
2023-04-22T10:14:05.647Z,2.00
2023-04-22T10:16:36.585Z,1.63
2023-04-22T10:19:07.377Z,2.43
2023-04-22T10:21:36.172Z,1.80
2023-04-22T10:24:05.109Z,1.90
2023-04-22T10:26:43.848Z,2.00
2023-04-22T10:29:17.281Z,1.70
2023-04-22T10:31:47.337Z,3.17
2023-04-22T10:34:16.468Z,1.60
2023-04-22T10:37:12.468Z,1.80
2023-04-22T10:39:43.018Z,1.73
2023-04-22T10:42:15.367Z,1.50
2023-04-22T10:44:48.630Z,1.60
2023-04-22T10:47:28.701Z,1.70
2023-04-22T10:50:17.968Z,1.60
2023-04-22T10:52:49.328Z,1.53
2023-04-22T10:55:17.616Z,1.70
2023-04-22T10:57:46.703Z,1.53
2023-04-22T11:00:41.805Z,1.52
2023-04-22T11:03:18.047Z,1.70
2023-04-22T11:05:46.671Z,1.50
2023-04-22T11:08:18.457Z,1.70
2023-04-22T11:10:47.386Z,1.40
2023-04-22T11:13:17.151Z,1.57
2023-04-22T11:15:46.508Z,1.60
2023-04-22T11:18:23.947Z,1.43
2023-04-22T11:20:53.703Z,1.60
2023-04-22T11:23:24.536Z,1.50
2023-04-22T11:25:57.554Z,1.60
2023-04-22T11:28:25.425Z,1.98
2023-04-22T11:30:53.983Z,1.90
2023-04-22T11:33:23.216Z,2.25
2023-04-22T11:35:52.136Z,1.65
2023-04-22T11:38:20.331Z,2.50
2023-04-22T11:40:49.641Z,1.80
2023-04-22T11:43:18.921Z,1.70
2023-04-22T11:45:47.084Z,1.70
2023-04-22T11:48:16.862Z,2.10
2023-04-22T11:50:48.223Z,1.83
2023-04-22T11:53:17.335Z,1.70
2023-04-22T11:55:46.805Z,1.80
2023-04-22T11:58:15.951Z,1.80
2023-04-22T12:00:45.270Z,2.15
2023-04-22T12:03:17.653Z,1.67
2023-04-22T12:05:49.211Z,1.73
2023-04-22T12:08:18.897Z,2.20
2023-04-22T12:10:48.558Z,1.90
2023-04-22T12:13:21.271Z,1.70
2023-04-22T12:15:49.973Z,1.83
2023-04-22T12:18:18.483Z,1.83
2023-04-22T12:20:47.896Z,2.08
2023-04-22T12:23:16.430Z,1.80
2023-04-22T12:25:44.890Z,1.90
2023-04-22T12:28:13.649Z,2.20
2023-04-22T12:30:41.365Z,1.88
2023-04-22T12:33:10.267Z,1.60
2023-04-22T12:35:38.230Z,1.65
2023-04-22T12:38:07.797Z,1.80
2023-04-22T12:40:35.555Z,1.67
2023-04-22T12:43:05.997Z,1.88
2023-04-22T12:45:34.474Z,1.75
2023-04-22T12:48:02.684Z,1.70
2023-04-22T12:50:30.556Z,1.80
2023-04-22T12:52:58.633Z,1.70
2023-04-22T12:55:28.063Z,1.67
2023-04-22T12:57:56.926Z,1.67
2023-04-22T13:00:25.552Z,1.90
2023-04-22T13:02:53.717Z,1.83
2023-04-22T13:05:22.383Z,1.92
2023-04-22T13:08:05.701Z,1.90
2023-04-22T13:10:37.084Z,1.60
2023-04-22T13:13:17.768Z,1.70
2023-04-22T13:15:47.328Z,1.95
2023-04-22T13:18:16.197Z,1.70
2023-04-22T13:20:45.359Z,1.60
2023-04-22T13:23:14.382Z,1.55
2023-04-22T13:25:44.742Z,1.70
2023-04-22T13:28:13.768Z,1.70
2023-04-22T13:30:41.712Z,1.70
2023-04-22T13:33:09.425Z,1.70
2023-04-22T13:35:37.720Z,1.80
2023-04-22T13:38:07.290Z,1.50
2023-04-22T13:40:35.112Z,1.80
2023-04-22T13:43:05.149Z,2.08
2023-04-22T13:45:32.788Z,1.80
2023-04-22T13:48:00.776Z,1.80
2023-04-22T13:50:28.468Z,1.75
2023-04-22T13:52:56.582Z,2.05
2023-04-22T13:55:24.646Z,2.10
2023-04-22T13:57:53.008Z,1.90
2023-04-22T14:00:22.161Z,1.70
2023-04-22T14:02:50.355Z,1.80
2023-04-22T14:05:18.308Z,1.80
2023-04-22T14:07:46.274Z,1.80
2023-04-22T14:10:14.219Z,1.73
2023-04-22T14:12:41.901Z,2.50
2023-04-22T14:15:11.611Z,1.83
2023-04-22T14:17:42.041Z,1.75
2023-04-22T14:20:11.195Z,1.90
2023-04-22T14:22:39.112Z,2.00
2023-04-22T14:25:08.057Z,1.85
2023-04-22T14:27:35.918Z,1.75
2023-04-22T14:30:05.278Z,1.80
2023-04-22T14:32:33.485Z,1.70
2023-04-22T14:35:03.551Z,1.88
2023-04-22T14:37:32.331Z,1.77
2023-04-22T14:40:00.165Z,1.83
2023-04-22T14:42:28.569Z,2.83
2023-04-22T14:44:56.312Z,2.10
2023-04-22T14:47:24.524Z,2.13
2023-04-22T14:49:52.639Z,1.70
2023-04-22T14:52:21.885Z,1.80
2023-04-22T14:54:51.799Z,1.70
2023-04-22T14:57:20.175Z,1.67
2023-04-22T14:59:48.144Z,2.15
2023-04-22T15:02:16.958Z,2.00
2023-04-22T15:04:45.615Z,1.88
2023-04-22T15:07:13.545Z,1.60
2023-04-22T15:09:43.491Z,2.15
2023-04-22T15:12:11.585Z,1.95
2023-04-22T15:14:39.649Z,1.60
2023-04-22T15:17:07.813Z,1.83
2023-04-22T15:19:35.478Z,1.83
2023-04-22T15:22:03.346Z,2.22
2023-04-22T15:24:31.061Z,1.40
2023-04-22T15:27:01.601Z,1.90
2023-04-22T15:29:30.256Z,1.75
2023-04-22T15:31:58.884Z,1.90
2023-04-22T15:34:27.957Z,1.95
2023-04-22T15:36:55.714Z,1.70
2023-04-22T15:39:25.291Z,2.20
2023-04-22T15:41:52.906Z,1.95
2023-04-22T15:44:22.386Z,1.67
2023-04-22T15:46:52.834Z,1.77
2023-04-22T15:49:21.190Z,1.90
2023-04-22T15:51:49.444Z,2.57
2023-04-22T15:54:20.300Z,2.50
2023-04-22T15:56:48.355Z,1.90
2023-04-22T15:59:16.279Z,1.77
2023-04-22T16:01:46.466Z,1.80
2023-04-22T16:04:15.818Z,1.97
2023-04-22T16:06:43.677Z,1.83
2023-04-22T16:09:12.050Z,2.30
2023-04-22T16:11:39.815Z,2.30
2023-04-22T16:14:07.805Z,2.07
2023-04-22T16:16:35.867Z,2.40
2023-04-22T16:19:05.009Z,1.50
2023-04-22T16:21:33.450Z,2.50
2023-04-22T16:24:01.548Z,2.33
2023-04-22T16:26:29.553Z,2.13
2023-04-22T16:28:57.264Z,2.10
2023-04-22T16:31:25.234Z,2.00
2023-04-22T16:33:53.289Z,1.80
2023-04-22T16:36:24.494Z,1.80
2023-04-22T16:38:52.310Z,2.00
2023-04-22T16:41:21.602Z,2.00
2023-04-22T16:43:49.493Z,2.30
2023-04-22T16:46:17.309Z,1.83
2023-04-22T16:48:45.009Z,2.30
2023-04-22T16:51:13.073Z,2.13
2023-04-22T16:53:42.408Z,2.63
2023-04-22T16:56:10.733Z,2.40
2023-04-22T16:58:38.569Z,1.93
2023-04-22T17:01:07.218Z,2.13
2023-04-22T17:03:35.916Z,2.00
2023-04-22T17:06:03.882Z,2.17
2023-04-22T17:08:31.682Z,2.73
2023-04-22T17:11:00.810Z,2.47
2023-04-22T17:13:28.899Z,2.73
2023-04-22T17:15:56.652Z,2.30
2023-04-22T17:18:24.607Z,2.20
2023-04-22T17:20:52.682Z,2.40
2023-04-22T17:23:23.697Z,2.20
2023-04-22T17:25:51.471Z,2.47
2023-04-22T17:28:20.717Z,2.47
2023-04-22T17:30:49.044Z,2.30
2023-04-22T17:33:16.739Z,2.37
2023-04-22T17:35:45.833Z,2.17
2023-04-22T17:38:14.117Z,1.97
2023-04-22T17:40:43.960Z,2.43
2023-04-22T17:43:12.112Z,2.10
2023-04-22T17:45:41.339Z,2.23
2023-04-22T17:48:09.024Z,2.30
2023-04-22T17:50:37.593Z,2.23
2023-04-22T17:53:05.308Z,2.40
2023-04-22T17:55:35.978Z,2.10
2023-04-22T17:58:06.091Z,1.97
2023-04-22T18:00:35.341Z,2.37
2023-04-22T18:03:06.351Z,2.20
2023-04-22T18:05:34.266Z,2.60
2023-04-22T18:08:02.999Z,2.43
2023-04-22T18:10:32.100Z,2.30
2023-04-22T18:13:00.505Z,2.50
2023-04-22T18:15:28.291Z,2.30
2023-04-22T18:17:56.505Z,2.30
2023-04-22T18:20:25.712Z,2.37
2023-04-22T18:22:53.672Z,2.10
2023-04-22T18:25:22.527Z,1.93
2023-04-22T18:27:55.290Z,2.10
2023-04-22T18:30:23.766Z,2.10
2023-04-22T18:32:51.896Z,2.10
2023-04-22T18:35:20.802Z,2.20
2023-04-22T18:37:50.301Z,2.10
2023-04-22T18:40:18.444Z,2.43
2023-04-22T18:42:47.579Z,2.40
2023-04-22T18:45:17.275Z,2.53
2023-04-22T18:47:47.067Z,2.10
2023-04-22T18:50:29.769Z,2.33
2023-04-22T18:52:58.978Z,2.73
2023-04-22T18:55:26.770Z,2.17
2023-04-22T18:57:54.803Z,2.20
2023-04-22T19:00:22.757Z,2.10
2023-04-22T19:02:50.711Z,2.33
2023-04-22T19:05:19.345Z,2.37
2023-04-22T19:07:48.541Z,2.80
2023-04-22T19:10:16.276Z,2.90
2023-04-22T19:12:45.206Z,2.50
2023-04-22T19:15:13.293Z,2.63
2023-04-22T19:17:42.651Z,2.40
2023-04-22T19:20:12.105Z,2.47
2023-04-22T19:22:40.116Z,2.47
2023-04-22T19:25:09.964Z,2.67
2023-04-22T19:27:37.919Z,2.20
2023-04-22T19:30:06.934Z,2.63
2023-04-22T19:32:34.626Z,2.70
2023-04-22T19:35:04.116Z,2.70
2023-04-22T19:37:32.068Z,2.97
2023-04-22T19:39:59.908Z,2.60
2023-04-22T19:42:30.142Z,2.60
2023-04-22T19:44:59.193Z,2.63
2023-04-22T19:47:27.351Z,3.10
2023-04-22T19:49:56.408Z,3.20
2023-04-22T19:52:25.806Z,2.73
2023-04-22T19:54:56.381Z,2.90
2023-04-22T19:57:26.322Z,3.00
2023-04-22T19:59:56.065Z,2.60
2023-04-22T20:02:24.474Z,2.77
2023-04-22T20:04:52.925Z,2.90
2023-04-22T20:07:21.536Z,2.93
2023-04-22T20:09:50.158Z,2.20
2023-04-22T20:12:18.399Z,2.50
2023-04-22T20:14:47.154Z,2.40
2023-04-22T20:17:18.567Z,2.40
2023-04-22T20:19:46.984Z,2.20
2023-04-22T20:22:18.265Z,2.50
2023-04-22T20:24:46.837Z,2.40
2023-04-22T20:27:17.060Z,2.27
2023-04-22T20:29:46.911Z,2.50
2023-04-22T20:32:16.814Z,2.40
2023-04-22T20:34:44.853Z,2.30
2023-04-22T20:37:13.988Z,2.57
2023-04-22T20:39:43.317Z,2.00
2023-04-22T20:42:12.078Z,2.40
2023-04-22T20:44:40.118Z,2.10
2023-04-22T20:47:08.606Z,2.23
2023-04-22T20:49:40.492Z,2.17
2023-04-22T20:52:08.618Z,2.10
2023-04-22T20:54:36.513Z,2.20
2023-04-22T20:57:05.992Z,2.20
2023-04-22T20:59:34.391Z,2.40
2023-04-22T21:02:04.467Z,2.20
2023-04-22T21:04:33.237Z,2.07
2023-04-22T21:07:05.231Z,2.10
2023-04-22T21:09:34.553Z,2.10
2023-04-22T21:12:03.128Z,2.03
2023-04-22T21:14:31.511Z,1.83
2023-04-22T21:17:03.021Z,2.00
2023-04-22T21:19:33.713Z,2.37
2023-04-22T21:22:05.819Z,1.80
2023-04-22T21:24:35.084Z,1.83
2023-04-22T21:27:04.797Z,1.80
2023-04-22T21:29:33.452Z,2.43
2023-04-22T21:32:08.148Z,1.80
2023-04-22T21:34:37.077Z,2.00
2023-04-22T21:37:06.967Z,2.10
2023-04-22T21:39:34.894Z,1.97
2023-04-22T21:42:08.397Z,2.20
2023-04-22T21:44:38.321Z,1.80
2023-04-22T21:47:06.447Z,2.03
2023-04-22T21:49:34.477Z,2.10
2023-04-22T21:52:02.496Z,2.53
2023-04-22T21:54:31.819Z,2.17
2023-04-22T21:56:59.477Z,2.23
2023-04-22T21:59:27.171Z,2.30
2023-04-22T22:01:55.236Z,2.13
2023-04-22T22:04:23.152Z,2.20
2023-04-22T22:06:51.170Z,2.20
2023-04-22T22:09:18.881Z,2.50
2023-04-22T22:11:48.125Z,2.30
2023-04-22T22:14:16.186Z,2.57
2023-04-22T22:16:44.516Z,2.63
2023-04-22T22:19:14.014Z,2.30
2023-04-22T22:21:41.874Z,2.63
2023-04-22T22:24:10.690Z,2.57
2023-04-22T22:26:41.065Z,2.23
2023-04-22T22:29:15.276Z,2.70
2023-04-22T22:31:43.516Z,2.87
2023-04-22T22:34:11.412Z,3.77
2023-04-22T22:36:39.167Z,4.30
2023-04-22T22:39:09.855Z,4.23
2023-04-22T22:41:37.872Z,4.73
2023-04-22T22:44:05.539Z,4.90
2023-04-22T22:46:35.065Z,5.47
2023-04-22T22:49:03.365Z,5.93
2023-04-22T22:51:32.798Z,6.43
2023-04-22T22:54:01.077Z,6.00
2023-04-22T22:56:29.005Z,6.60
2023-04-22T22:58:56.886Z,6.70
2023-04-22T23:01:25.032Z,7.27
2023-04-22T23:03:54.564Z,8.27
2023-04-22T23:06:22.660Z,8.20
2023-04-22T23:08:50.355Z,8.23
2023-04-22T23:11:17.973Z,8.60
2023-04-22T23:13:46.374Z,9.13
2023-04-22T23:16:14.351Z,10.23
2023-04-22T23:18:43.709Z,10.50
2023-04-22T23:21:13.821Z,11.30
2023-04-22T23:23:42.277Z,10.67
2023-04-22T23:26:11.346Z,10.13
2023-04-22T23:28:39.590Z,10.93
2023-04-22T23:31:08.102Z,11.67
2023-04-22T23:33:36.511Z,11.60
2023-04-22T23:36:09.681Z,10.50
2023-04-22T23:38:39.242Z,11.83
2023-04-22T23:41:06.915Z,12.27
2023-04-22T23:43:34.568Z,12.20
2023-04-22T23:46:02.707Z,11.43
2023-04-22T23:48:30.993Z,12.63
2023-04-22T23:50:58.755Z,12.90
2023-04-22T23:53:26.586Z,13.37
2023-04-22T23:55:58.428Z,13.73
2023-04-22T23:58:26.747Z,14.87
